SVA189 OKKK-OMDB
Flight info
| Callsign | SVA189 |
|---|---|
| Flight time | 1h 26m |
| Altitude | 35000 |
| Route | SESRU M677 VUTEB |
| Aircraft | A321/M-SDE3FGHIRWY/LB1 |
Departure
| Time | 2026-05-08 11:54 |
|---|---|
| Airport | Kuwait International Airport (OKKK) |
Arrival
| Time | 2026-05-08 13:20 |
|---|---|
| Airport | Dubai International Airport (OMDB) |
| Time | Latitude | Longitude | Altitude | Speed | Heading |
|---|---|---|---|---|---|
| 2026-05-08 11:17 | 29.23768 | 47.97173 | 167 ft | 0 kts | 67° |
| 2026-05-08 11:19 | 29.23768 | 47.97172 | 167 ft | 0 kts | 67° |
| 2026-05-08 11:39 | 29.23766 | 47.97167 | 167 ft | 4 kts | 68° |
| 2026-05-08 11:39 | 29.23756 | 47.97137 | 167 ft | 4 kts | 75° |
| 2026-05-08 11:39 | 29.23752 | 47.97107 | 167 ft | 4 kts | 92° |
| 2026-05-08 11:39 | 29.23758 | 47.97081 | 167 ft | 4 kts | 140° |
| 2026-05-08 11:40 | 29.23767 | 47.97074 | 167 ft | 1 kts | 155° |
| 2026-05-08 11:43 | 29.23735 | 47.97091 | 167 ft | 10 kts | 155° |
| 2026-05-08 11:43 | 29.23674 | 47.97123 | 167 ft | 9 kts | 155° |
| 2026-05-08 11:44 | 29.23629 | 47.97160 | 167 ft | 7 kts | 138° |
| 2026-05-08 11:44 | 29.23576 | 47.97187 | 167 ft | 11 kts | 185° |
| 2026-05-08 11:44 | 29.23528 | 47.97128 | 167 ft | 10 kts | 243° |
| 2026-05-08 11:44 | 29.23496 | 47.97037 | 166 ft | 17 kts | 257° |
| 2026-05-08 11:45 | 29.23505 | 47.96909 | 165 ft | 10 kts | 278° |
| 2026-05-08 11:45 | 29.23515 | 47.96829 | 164 ft | 10 kts | 278° |
| 2026-05-08 11:45 | 29.23525 | 47.96749 | 163 ft | 10 kts | 272° |
| 2026-05-08 11:45 | 29.23506 | 47.96700 | 163 ft | 1 kts | 191° |
| 2026-05-08 11:46 | 29.23462 | 47.96717 | 163 ft | 17 kts | 157° |
| 2026-05-08 11:46 | 29.23326 | 47.96788 | 164 ft | 22 kts | 155° |
| 2026-05-08 11:46 | 29.23191 | 47.96860 | 165 ft | 21 kts | 156° |
| 2026-05-08 11:46 | 29.23071 | 47.96922 | 167 ft | 18 kts | 154° |
| 2026-05-08 11:47 | 29.22966 | 47.96979 | 168 ft | 16 kts | 155° |
| 2026-05-08 11:47 | 29.22868 | 47.97030 | 167 ft | 15 kts | 155° |
| 2026-05-08 11:47 | 29.22778 | 47.97078 | 167 ft | 14 kts | 154° |
| 2026-05-08 11:47 | 29.22696 | 47.97122 | 167 ft | 12 kts | 154° |
| 2026-05-08 11:48 | 29.22623 | 47.97162 | 167 ft | 11 kts | 154° |
| 2026-05-08 11:48 | 29.22539 | 47.97206 | 167 ft | 17 kts | 156° |
| 2026-05-08 11:48 | 29.22413 | 47.97272 | 167 ft | 20 kts | 155° |
| 2026-05-08 11:48 | 29.22290 | 47.97338 | 167 ft | 19 kts | 155° |
| 2026-05-08 11:49 | 29.22177 | 47.97398 | 167 ft | 17 kts | 155° |
| 2026-05-08 11:49 | 29.22071 | 47.97455 | 166 ft | 16 kts | 155° |
| 2026-05-08 11:49 | 29.21973 | 47.97508 | 166 ft | 15 kts | 155° |
| 2026-05-08 11:49 | 29.21877 | 47.97558 | 166 ft | 18 kts | 155° |
| 2026-05-08 11:50 | 29.21759 | 47.97619 | 166 ft | 18 kts | 155° |
| 2026-05-08 11:50 | 29.21652 | 47.97677 | 167 ft | 16 kts | 155° |
| 2026-05-08 11:50 | 29.21541 | 47.97736 | 168 ft | 19 kts | 155° |
| 2026-05-08 11:50 | 29.21426 | 47.97798 | 169 ft | 15 kts | 154° |
| 2026-05-08 11:51 | 29.21347 | 47.97840 | 170 ft | 11 kts | 156° |
| 2026-05-08 11:51 | 29.21278 | 47.97851 | 170 ft | 9 kts | 195° |
| 2026-05-08 11:51 | 29.21245 | 47.97799 | 170 ft | 8 kts | 248° |
| 2026-05-08 11:51 | 29.21245 | 47.97748 | 170 ft | 7 kts | 289° |
| 2026-05-08 11:52 | 29.21272 | 47.97694 | 170 ft | 7 kts | 303° |
| 2026-05-08 11:52 | 29.21311 | 47.97632 | 170 ft | 15 kts | 310° |
| 2026-05-08 11:52 | 29.21406 | 47.97561 | 169 ft | 16 kts | 333° |
| 2026-05-08 11:52 | 29.21546 | 47.97482 | 167 ft | 43 kts | 334° |
| 2026-05-08 11:53 | 29.22019 | 47.97232 | 167 ft | 104 kts | 335° |
| 2026-05-08 11:53 | 29.22825 | 47.96804 | 162 ft | 149 kts | 335° |
| 2026-05-08 11:53 | 29.23873 | 47.96229 | 209 ft | 182 kts | 334° |
| 2026-05-08 11:53 | 29.25005 | 47.95620 | 801 ft | 176 kts | 334° |
| 2026-05-08 11:54 | 29.26103 | 47.95034 | 1405 ft | 172 kts | 335° |
| 2026-05-08 11:54 | 29.27211 | 47.94447 | 1648 ft | 182 kts | 335° |
| 2026-05-08 11:54 | 29.28406 | 47.93819 | 1781 ft | 196 kts | 335° |
| 2026-05-08 11:54 | 29.29684 | 47.93145 | 1905 ft | 209 kts | 335° |
| 2026-05-08 11:55 | 29.31055 | 47.92420 | 2007 ft | 227 kts | 335° |
| 2026-05-08 11:55 | 29.32557 | 47.91630 | 2155 ft | 248 kts | 337° |
| 2026-05-08 11:55 | 29.34265 | 47.91219 | 2612 ft | 256 kts | 359° |
| 2026-05-08 11:55 | 29.36027 | 47.91630 | 3184 ft | 264 kts | 23° |
| 2026-05-08 11:56 | 29.37533 | 47.92856 | 3768 ft | 271 kts | 47° |
| 2026-05-08 11:56 | 29.38564 | 47.94684 | 4007 ft | 276 kts | 60° |
| 2026-05-08 11:56 | 29.39466 | 47.96633 | 4692 ft | 277 kts | 60° |
| 2026-05-08 11:56 | 29.40375 | 47.98605 | 5440 ft | 282 kts | 60° |
| 2026-05-08 11:57 | 29.41309 | 48.00618 | 6050 ft | 290 kts | 60° |
| 2026-05-08 11:57 | 29.42262 | 48.02673 | 6654 ft | 294 kts | 62° |
| 2026-05-08 11:57 | 29.42965 | 48.04899 | 7174 ft | 300 kts | 77° |
| 2026-05-08 11:57 | 29.43201 | 48.07288 | 7721 ft | 304 kts | 91° |
| 2026-05-08 11:58 | 29.42948 | 48.09693 | 8290 ft | 305 kts | 106° |
| 2026-05-08 11:58 | 29.42246 | 48.11993 | 8872 ft | 306 kts | 114° |
| 2026-05-08 11:58 | 29.41460 | 48.14269 | 9484 ft | 308 kts | 114° |
| 2026-05-08 11:59 | 29.39865 | 48.18938 | 10258 ft | 328 kts | 113° |
| 2026-05-08 11:59 | 29.39010 | 48.21447 | 10383 ft | 347 kts | 113° |
| 2026-05-08 11:59 | 29.38118 | 48.24069 | 10632 ft | 358 kts | 113° |
| 2026-05-08 11:59 | 29.37215 | 48.26723 | 11100 ft | 362 kts | 113° |
| 2026-05-08 12:00 | 29.36301 | 48.29419 | 11660 ft | 364 kts | 112° |
| 2026-05-08 12:00 | 29.35382 | 48.32120 | 12238 ft | 364 kts | 112° |
| 2026-05-08 12:00 | 29.34459 | 48.34834 | 12809 ft | 366 kts | 112° |
| 2026-05-08 12:00 | 29.33532 | 48.37556 | 13380 ft | 367 kts | 112° |
| 2026-05-08 12:01 | 29.32601 | 48.40287 | 13915 ft | 369 kts | 112° |
| 2026-05-08 12:01 | 29.31661 | 48.43034 | 14340 ft | 373 kts | 112° |
| 2026-05-08 12:01 | 29.30707 | 48.45815 | 14742 ft | 378 kts | 113° |
| 2026-05-08 12:01 | 29.29738 | 48.48634 | 15131 ft | 383 kts | 113° |
| 2026-05-08 12:02 | 29.28760 | 48.51484 | 15540 ft | 387 kts | 113° |
| 2026-05-08 12:02 | 29.27782 | 48.54336 | 15943 ft | 391 kts | 113° |
| 2026-05-08 12:02 | 29.26780 | 48.57256 | 16329 ft | 396 kts | 113° |
| 2026-05-08 12:02 | 29.25762 | 48.60216 | 16736 ft | 400 kts | 113° |
| 2026-05-08 12:03 | 29.24731 | 48.63212 | 17120 ft | 405 kts | 114° |
| 2026-05-08 12:03 | 29.23692 | 48.66225 | 17499 ft | 409 kts | 113° |
| 2026-05-08 12:03 | 29.22655 | 48.69227 | 17934 ft | 412 kts | 113° |
| 2026-05-08 12:03 | 29.21586 | 48.72325 | 18319 ft | 415 kts | 113° |
| 2026-05-08 12:04 | 29.20521 | 48.75409 | 18677 ft | 417 kts | 114° |
| 2026-05-08 12:04 | 29.19453 | 48.78506 | 19083 ft | 418 kts | 114° |
| 2026-05-08 12:04 | 29.18385 | 48.81605 | 19478 ft | 419 kts | 114° |
| 2026-05-08 12:04 | 29.17317 | 48.84706 | 19846 ft | 420 kts | 115° |
| 2026-05-08 12:05 | 29.16241 | 48.87763 | 20213 ft | 419 kts | 118° |
| 2026-05-08 12:05 | 29.14829 | 48.90659 | 20565 ft | 415 kts | 129° |
| 2026-05-08 12:05 | 29.13027 | 48.93202 | 20915 ft | 409 kts | 139° |
| 2026-05-08 12:05 | 29.10927 | 48.95371 | 21275 ft | 406 kts | 144° |
| 2026-05-08 12:06 | 29.08776 | 48.97457 | 21647 ft | 406 kts | 145° |
| 2026-05-08 12:06 | 29.06626 | 48.99549 | 22019 ft | 406 kts | 145° |
| 2026-05-08 12:06 | 29.04474 | 49.01644 | 22390 ft | 406 kts | 145° |
| 2026-05-08 12:06 | 29.02323 | 49.03738 | 22762 ft | 406 kts | 145° |
| 2026-05-08 12:07 | 29.00170 | 49.05836 | 23136 ft | 407 kts | 145° |
| 2026-05-08 12:07 | 28.98022 | 49.07931 | 23503 ft | 406 kts | 144° |
| 2026-05-08 12:07 | 28.95873 | 49.10025 | 23800 ft | 407 kts | 145° |
| 2026-05-08 12:07 | 28.93715 | 49.12126 | 24068 ft | 408 kts | 145° |
| 2026-05-08 12:08 | 28.91546 | 49.14234 | 24333 ft | 410 kts | 145° |
| 2026-05-08 12:08 | 28.89372 | 49.16344 | 24593 ft | 412 kts | 145° |
| 2026-05-08 12:08 | 28.87221 | 49.18435 | 25307 ft | 397 kts | 145° |
| 2026-05-08 12:08 | 28.85198 | 49.20466 | 26283 ft | 380 kts | 145° |
| 2026-05-08 12:09 | 28.83219 | 49.22493 | 26429 ft | 386 kts | 145° |
| 2026-05-08 12:09 | 28.81242 | 49.24533 | 26537 ft | 391 kts | 145° |
| 2026-05-08 12:09 | 28.79231 | 49.26614 | 26660 ft | 396 kts | 145° |
| 2026-05-08 12:09 | 28.77175 | 49.28739 | 26784 ft | 401 kts | 145° |
| 2026-05-08 12:10 | 28.75096 | 49.30880 | 26910 ft | 406 kts | 145° |
| 2026-05-08 12:10 | 28.72985 | 49.33047 | 27036 ft | 411 kts | 145° |
| 2026-05-08 12:10 | 28.70847 | 49.35236 | 27159 ft | 416 kts | 145° |
| 2026-05-08 12:10 | 28.68682 | 49.37449 | 27286 ft | 421 kts | 145° |
| 2026-05-08 12:11 | 28.66486 | 49.39692 | 27411 ft | 426 kts | 145° |
| 2026-05-08 12:11 | 28.64290 | 49.41938 | 27939 ft | 416 kts | 146° |
| 2026-05-08 12:11 | 28.62208 | 49.44117 | 29030 ft | 398 kts | 143° |
| 2026-05-08 12:11 | 28.60401 | 49.46432 | 30032 ft | 381 kts | 141° |
| 2026-05-08 12:12 | 28.58511 | 49.47651 | 31541 ft | 276 kts | 188° |
| 2026-05-08 12:12 | 28.56531 | 49.47923 | 29622 ft | 331 kts | 184° |
| 2026-05-08 12:12 | 28.54149 | 49.48481 | 29385 ft | 349 kts | 174° |
| 2026-05-08 12:12 | 28.51910 | 49.49414 | 30049 ft | 342 kts | 172° |
| 2026-05-08 12:13 | 28.49731 | 49.50464 | 30411 ft | 337 kts | 170° |
| 2026-05-08 12:13 | 28.47700 | 49.51852 | 30699 ft | 347 kts | 154° |
| 2026-05-08 12:13 | 28.45998 | 49.53895 | 30695 ft | 368 kts | 140° |
| 2026-05-08 12:13 | 28.44718 | 49.56522 | 30587 ft | 394 kts | 121° |
| 2026-05-08 12:14 | 28.43972 | 49.59575 | 30571 ft | 405 kts | 118° |
| 2026-05-08 12:14 | 28.43217 | 49.62684 | 30416 ft | 413 kts | 119° |
| 2026-05-08 12:14 | 28.42363 | 49.65846 | 30179 ft | 423 kts | 120° |
| 2026-05-08 12:14 | 28.41406 | 49.69040 | 30014 ft | 431 kts | 121° |
| 2026-05-08 12:15 | 28.40351 | 49.72259 | 29883 ft | 439 kts | 122° |
| 2026-05-08 12:15 | 28.39210 | 49.75423 | 30075 ft | 436 kts | 123° |
| 2026-05-08 12:15 | 28.38203 | 49.78625 | 30537 ft | 432 kts | 119° |
| 2026-05-08 12:15 | 28.37391 | 49.81891 | 30995 ft | 426 kts | 118° |
| 2026-05-08 12:16 | 28.36467 | 49.85011 | 31429 ft | 406 kts | 129° |
| 2026-05-08 12:16 | 28.35039 | 49.87627 | 31785 ft | 377 kts | 148° |
| 2026-05-08 12:16 | 28.33127 | 49.89513 | 31903 ft | 356 kts | 163° |
| 2026-05-08 12:16 | 28.30987 | 49.90827 | 32037 ft | 345 kts | 170° |
| 2026-05-08 12:17 | 28.28801 | 49.91911 | 32166 ft | 342 kts | 172° |
| 2026-05-08 12:17 | 28.26602 | 49.92925 | 32292 ft | 340 kts | 173° |
| 2026-05-08 12:17 | 28.22297 | 49.95383 | 32381 ft | 354 kts | 163° |
| 2026-05-08 12:18 | 28.20241 | 49.96961 | 32494 ft | 358 kts | 159° |
| 2026-05-08 12:18 | 28.18245 | 49.98654 | 32614 ft | 358 kts | 159° |
| 2026-05-08 12:18 | 28.16262 | 50.00322 | 32801 ft | 353 kts | 161° |
| 2026-05-08 12:18 | 28.14264 | 50.01893 | 32979 ft | 348 kts | 162° |
| 2026-05-08 12:19 | 28.12272 | 50.03432 | 33136 ft | 345 kts | 162° |
| 2026-05-08 12:19 | 28.10299 | 50.04963 | 33304 ft | 342 kts | 163° |
| 2026-05-08 12:19 | 28.08350 | 50.06485 | 33484 ft | 338 kts | 163° |
| 2026-05-08 12:19 | 28.06426 | 50.07992 | 33647 ft | 334 kts | 164° |
| 2026-05-08 12:20 | 28.04514 | 50.09458 | 33788 ft | 330 kts | 165° |
| 2026-05-08 12:20 | 28.02613 | 50.10871 | 33922 ft | 324 kts | 166° |
| 2026-05-08 12:20 | 27.98794 | 50.13544 | 33843 ft | 324 kts | 168° |
| 2026-05-08 12:21 | 27.94834 | 50.16056 | 33591 ft | 331 kts | 169° |
| 2026-05-08 12:21 | 27.92791 | 50.17369 | 33268 ft | 346 kts | 164° |
| 2026-05-08 12:21 | 27.90759 | 50.18880 | 32758 ft | 353 kts | 161° |
| 2026-05-08 12:22 | 27.88696 | 50.20534 | 31440 ft | 375 kts | 158° |
| 2026-05-08 12:22 | 27.86457 | 50.22304 | 30393 ft | 409 kts | 157° |
| 2026-05-08 12:22 | 27.84069 | 50.24132 | 30235 ft | 418 kts | 157° |
| 2026-05-08 12:22 | 27.81624 | 50.25966 | 30124 ft | 426 kts | 157° |
| 2026-05-08 12:23 | 27.76704 | 50.29891 | 30173 ft | 438 kts | 154° |
| 2026-05-08 12:23 | 27.71792 | 50.34021 | 30383 ft | 443 kts | 153° |
| 2026-05-08 12:24 | 27.69340 | 50.36135 | 30526 ft | 444 kts | 153° |
| 2026-05-08 12:24 | 27.66898 | 50.38278 | 30694 ft | 445 kts | 153° |
| 2026-05-08 12:24 | 27.64467 | 50.40448 | 30872 ft | 445 kts | 152° |
| 2026-05-08 12:24 | 27.62061 | 50.42637 | 31074 ft | 445 kts | 152° |
| 2026-05-08 12:25 | 27.59654 | 50.44829 | 31292 ft | 442 kts | 154° |
| 2026-05-08 12:25 | 27.57181 | 50.46847 | 31559 ft | 436 kts | 156° |
| 2026-05-08 12:25 | 27.54668 | 50.48751 | 31837 ft | 431 kts | 160° |
| 2026-05-08 12:25 | 27.52068 | 50.50340 | 32124 ft | 422 kts | 166° |
| 2026-05-08 12:26 | 27.50305 | 50.51224 | 32313 ft | 416 kts | 169° |
| 2026-05-08 12:26 | 27.46672 | 50.52641 | 32692 ft | 406 kts | 173° |
| 2026-05-08 12:26 | 27.44907 | 50.53303 | 32958 ft | 406 kts | 171° |
| 2026-05-08 12:26 | 27.42288 | 50.54625 | 32974 ft | 419 kts | 161° |
| 2026-05-08 12:27 | 27.39079 | 50.57158 | 33109 ft | 433 kts | 152° |
| 2026-05-08 12:27 | 27.36833 | 50.59453 | 33125 ft | 441 kts | 148° |
| 2026-05-08 12:27 | 27.32440 | 50.64380 | 33247 ft | 448 kts | 147° |
| 2026-05-08 12:28 | 27.30248 | 50.66873 | 33355 ft | 449 kts | 146° |
| 2026-05-08 12:28 | 27.28769 | 50.68568 | 33425 ft | 450 kts | 146° |
| 2026-05-08 12:28 | 27.26582 | 50.71091 | 33550 ft | 450 kts | 146° |
| 2026-05-08 12:28 | 27.24410 | 50.73620 | 33723 ft | 450 kts | 145° |
| 2026-05-08 12:29 | 27.22245 | 50.76166 | 33904 ft | 449 kts | 145° |
| 2026-05-08 12:29 | 27.20102 | 50.78710 | 34084 ft | 448 kts | 145° |
| 2026-05-08 12:29 | 27.17934 | 50.81204 | 34213 ft | 444 kts | 149° |
| 2026-05-08 12:29 | 27.15639 | 50.83421 | 34307 ft | 439 kts | 154° |
| 2026-05-08 12:30 | 27.10638 | 50.87297 | 34243 ft | 437 kts | 158° |
| 2026-05-08 12:30 | 27.05533 | 50.91075 | 34243 ft | 442 kts | 157° |
| 2026-05-08 12:31 | 27.02997 | 50.93004 | 34363 ft | 440 kts | 157° |
| 2026-05-08 12:31 | 27.00504 | 50.95015 | 34551 ft | 441 kts | 154° |
| 2026-05-08 12:31 | 26.98106 | 50.97162 | 34757 ft | 442 kts | 152° |
| 2026-05-08 12:31 | 26.95806 | 50.99450 | 34987 ft | 443 kts | 147° |
| 2026-05-08 12:32 | 26.91762 | 51.04800 | 34682 ft | 458 kts | 133° |
| 2026-05-08 12:32 | 26.90244 | 51.07988 | 34566 ft | 470 kts | 124° |
| 2026-05-08 12:32 | 26.89065 | 51.11417 | 34693 ft | 472 kts | 121° |
| 2026-05-08 12:33 | 26.86865 | 51.18364 | 34725 ft | 478 kts | 115° |
| 2026-05-08 12:33 | 26.86082 | 51.22004 | 34864 ft | 478 kts | 115° |
| 2026-05-08 12:33 | 26.85208 | 51.25571 | 34999 ft | 474 kts | 118° |
| 2026-05-08 12:34 | 26.84192 | 51.29067 | 35109 ft | 470 kts | 120° |
| 2026-05-08 12:34 | 26.83094 | 51.32466 | 34949 ft | 469 kts | 122° |
| 2026-05-08 12:34 | 26.81882 | 51.35894 | 34767 ft | 465 kts | 123° |
| 2026-05-08 12:34 | 26.80679 | 51.39198 | 34782 ft | 466 kts | 123° |
| 2026-05-08 12:35 | 26.78114 | 51.45843 | 34885 ft | 465 kts | 125° |
| 2026-05-08 12:35 | 26.75390 | 51.52384 | 35052 ft | 463 kts | 127° |
| 2026-05-08 12:36 | 26.72904 | 51.59104 | 34892 ft | 471 kts | 120° |
| 2026-05-08 12:36 | 26.70778 | 51.65990 | 34904 ft | 461 kts | 128° |
| 2026-05-08 12:37 | 26.69166 | 51.69009 | 34738 ft | 445 kts | 134° |
| 2026-05-08 12:37 | 26.67548 | 51.71938 | 34913 ft | 443 kts | 128° |
| 2026-05-08 12:37 | 26.66191 | 51.75083 | 34826 ft | 460 kts | 114° |
| 2026-05-08 12:37 | 26.65675 | 51.78677 | 34799 ft | 478 kts | 97° |
| 2026-05-08 12:38 | 26.65523 | 51.86183 | 34797 ft | 484 kts | 96° |
| 2026-05-08 12:38 | 26.64407 | 51.93428 | 34803 ft | 468 kts | 116° |
| 2026-05-08 12:39 | 26.62171 | 52.00278 | 34792 ft | 468 kts | 117° |
| 2026-05-08 12:39 | 26.59920 | 52.07107 | 34789 ft | 469 kts | 116° |
| 2026-05-08 12:40 | 26.57681 | 52.13950 | 34780 ft | 469 kts | 116° |
| 2026-05-08 12:40 | 26.55448 | 52.20797 | 34767 ft | 469 kts | 116° |
| 2026-05-08 12:41 | 26.53218 | 52.27596 | 34771 ft | 469 kts | 116° |
| 2026-05-08 12:41 | 26.50954 | 52.34486 | 34765 ft | 470 kts | 116° |
| 2026-05-08 12:42 | 26.48704 | 52.41335 | 34765 ft | 470 kts | 116° |
| 2026-05-08 12:42 | 26.46448 | 52.48187 | 34765 ft | 470 kts | 116° |
| 2026-05-08 12:43 | 26.44205 | 52.54991 | 34751 ft | 470 kts | 116° |
| 2026-05-08 12:43 | 26.42122 | 52.61308 | 34756 ft | 470 kts | 116° |
| 2026-05-08 12:44 | 26.39858 | 52.68152 | 34759 ft | 470 kts | 116° |
| 2026-05-08 12:44 | 26.37589 | 52.74988 | 34766 ft | 470 kts | 116° |
| 2026-05-08 12:45 | 26.35312 | 52.81813 | 34765 ft | 470 kts | 116° |
| 2026-05-08 12:45 | 26.33049 | 52.88597 | 34760 ft | 470 kts | 116° |
| 2026-05-08 12:46 | 26.30773 | 52.95419 | 34749 ft | 469 kts | 116° |
| 2026-05-08 12:46 | 26.28496 | 53.02231 | 34769 ft | 469 kts | 116° |
| 2026-05-08 12:47 | 26.26388 | 53.08514 | 34769 ft | 469 kts | 116° |
| 2026-05-08 12:47 | 26.25250 | 53.11908 | 34381 ft | 467 kts | 116° |
| 2026-05-08 12:47 | 26.24109 | 53.15306 | 33701 ft | 469 kts | 116° |
| 2026-05-08 12:48 | 26.22961 | 53.18712 | 32923 ft | 471 kts | 116° |
| 2026-05-08 12:48 | 26.21806 | 53.22135 | 32185 ft | 472 kts | 115° |
| 2026-05-08 12:48 | 26.20651 | 53.25560 | 31469 ft | 473 kts | 115° |
| 2026-05-08 12:48 | 26.19497 | 53.28990 | 30969 ft | 471 kts | 115° |
| 2026-05-08 12:49 | 26.18345 | 53.32413 | 30760 ft | 473 kts | 115° |
| 2026-05-08 12:49 | 26.17131 | 53.35812 | 30759 ft | 473 kts | 117° |
| 2026-05-08 12:49 | 26.14444 | 53.42490 | 30768 ft | 472 kts | 120° |
| 2026-05-08 12:50 | 26.11633 | 53.49091 | 30768 ft | 472 kts | 120° |
| 2026-05-08 12:50 | 26.08875 | 53.55730 | 30767 ft | 473 kts | 118° |
| 2026-05-08 12:51 | 26.07526 | 53.59056 | 30517 ft | 471 kts | 118° |
| 2026-05-08 12:51 | 26.04851 | 53.65686 | 29783 ft | 472 kts | 118° |
| 2026-05-08 12:51 | 26.03499 | 53.69019 | 29513 ft | 473 kts | 118° |
| 2026-05-08 12:52 | 26.02144 | 53.72347 | 29112 ft | 470 kts | 118° |
| 2026-05-08 12:52 | 25.99478 | 53.78910 | 27917 ft | 461 kts | 117° |
| 2026-05-08 12:52 | 25.98196 | 53.82161 | 27328 ft | 457 kts | 117° |
| 2026-05-08 12:53 | 25.96942 | 53.85383 | 26762 ft | 452 kts | 117° |
| 2026-05-08 12:53 | 25.95704 | 53.88582 | 26195 ft | 448 kts | 117° |
| 2026-05-08 12:53 | 25.94477 | 53.91743 | 25633 ft | 444 kts | 117° |
| 2026-05-08 12:53 | 25.93251 | 53.94878 | 25068 ft | 440 kts | 117° |
| 2026-05-08 12:54 | 25.92034 | 53.97973 | 24565 ft | 435 kts | 117° |
| 2026-05-08 12:54 | 25.90791 | 54.01016 | 24056 ft | 429 kts | 118° |
| 2026-05-08 12:54 | 25.89501 | 54.03986 | 23547 ft | 424 kts | 119° |
| 2026-05-08 12:54 | 25.88189 | 54.06895 | 22958 ft | 419 kts | 120° |
| 2026-05-08 12:55 | 25.86881 | 54.09762 | 22321 ft | 415 kts | 120° |
| 2026-05-08 12:55 | 25.85572 | 54.12632 | 21219 ft | 421 kts | 119° |
| 2026-05-08 12:55 | 25.84263 | 54.15522 | 20790 ft | 412 kts | 119° |
| 2026-05-08 12:55 | 25.83002 | 54.18338 | 20369 ft | 402 kts | 118° |
| 2026-05-08 12:56 | 25.81825 | 54.21133 | 19829 ft | 398 kts | 113° |
| 2026-05-08 12:56 | 25.80924 | 54.24025 | 19289 ft | 395 kts | 111° |
| 2026-05-08 12:56 | 25.80058 | 54.26857 | 18766 ft | 391 kts | 110° |
| 2026-05-08 12:56 | 25.79183 | 54.29698 | 18256 ft | 387 kts | 111° |
| 2026-05-08 12:57 | 25.78310 | 54.32506 | 17707 ft | 383 kts | 111° |
| 2026-05-08 12:57 | 25.77441 | 54.35289 | 17142 ft | 380 kts | 111° |
| 2026-05-08 12:57 | 25.76568 | 54.38079 | 16593 ft | 376 kts | 111° |
| 2026-05-08 12:57 | 25.75713 | 54.40804 | 16066 ft | 372 kts | 111° |
| 2026-05-08 12:58 | 25.74869 | 54.43505 | 15577 ft | 368 kts | 111° |
| 2026-05-08 12:58 | 25.74045 | 54.46140 | 15094 ft | 365 kts | 112° |
| 2026-05-08 12:58 | 25.73209 | 54.48820 | 14602 ft | 361 kts | 112° |
| 2026-05-08 12:58 | 25.72394 | 54.51441 | 14129 ft | 358 kts | 112° |
| 2026-05-08 12:59 | 25.71595 | 54.54006 | 13663 ft | 355 kts | 112° |
| 2026-05-08 12:59 | 25.70781 | 54.56616 | 13135 ft | 352 kts | 112° |
| 2026-05-08 12:59 | 25.69994 | 54.59141 | 12598 ft | 350 kts | 112° |
| 2026-05-08 12:59 | 25.69186 | 54.61718 | 12037 ft | 349 kts | 111° |
| 2026-05-08 13:00 | 25.68389 | 54.64213 | 11507 ft | 347 kts | 112° |
| 2026-05-08 13:00 | 25.67569 | 54.66757 | 10973 ft | 345 kts | 112° |
| 2026-05-08 13:00 | 25.66762 | 54.69257 | 10454 ft | 344 kts | 111° |
| 2026-05-08 13:00 | 25.65971 | 54.71715 | 10247 ft | 332 kts | 111° |
| 2026-05-08 13:01 | 25.65214 | 54.74073 | 10124 ft | 317 kts | 111° |
| 2026-05-08 13:01 | 25.64489 | 54.76329 | 9995 ft | 304 kts | 111° |
| 2026-05-08 13:01 | 25.63808 | 54.78448 | 9985 ft | 287 kts | 112° |
| 2026-05-08 13:01 | 25.63152 | 54.80486 | 9983 ft | 277 kts | 111° |
| 2026-05-08 13:02 | 25.62507 | 54.82486 | 9986 ft | 275 kts | 112° |
| 2026-05-08 13:02 | 25.61861 | 54.84484 | 9988 ft | 275 kts | 111° |
| 2026-05-08 13:02 | 25.61214 | 54.86481 | 9824 ft | 274 kts | 112° |
| 2026-05-08 13:02 | 25.60511 | 54.88441 | 9449 ft | 273 kts | 115° |
| 2026-05-08 13:03 | 25.59760 | 54.90370 | 9023 ft | 272 kts | 115° |
| 2026-05-08 13:03 | 25.58998 | 54.92279 | 8629 ft | 271 kts | 114° |
| 2026-05-08 13:03 | 25.58235 | 54.94189 | 8232 ft | 271 kts | 115° |
| 2026-05-08 13:03 | 25.57478 | 54.96091 | 7988 ft | 269 kts | 114° |
| 2026-05-08 13:04 | 25.56726 | 54.97995 | 7980 ft | 271 kts | 114° |
| 2026-05-08 13:04 | 25.55976 | 54.99910 | 7985 ft | 271 kts | 114° |
| 2026-05-08 13:04 | 25.55228 | 55.01826 | 7984 ft | 271 kts | 114° |
| 2026-05-08 13:04 | 25.54449 | 55.03722 | 7987 ft | 270 kts | 120° |
| 2026-05-08 13:05 | 25.53511 | 55.05524 | 7990 ft | 270 kts | 120° |
| 2026-05-08 13:05 | 25.52572 | 55.07329 | 7989 ft | 270 kts | 120° |
| 2026-05-08 13:05 | 25.51637 | 55.09131 | 7990 ft | 270 kts | 120° |
| 2026-05-08 13:05 | 25.50702 | 55.10936 | 7989 ft | 270 kts | 120° |
| 2026-05-08 13:06 | 25.49768 | 55.12737 | 7992 ft | 270 kts | 120° |
| 2026-05-08 13:06 | 25.48829 | 55.14542 | 7989 ft | 270 kts | 120° |
| 2026-05-08 13:06 | 25.47893 | 55.16342 | 7989 ft | 270 kts | 120° |
| 2026-05-08 13:06 | 25.46956 | 55.18145 | 7989 ft | 270 kts | 120° |
| 2026-05-08 13:07 | 25.45983 | 55.19914 | 7992 ft | 270 kts | 127° |
| 2026-05-08 13:07 | 25.44753 | 55.21484 | 7992 ft | 270 kts | 133° |
| 2026-05-08 13:07 | 25.43498 | 55.23022 | 7992 ft | 270 kts | 133° |
| 2026-05-08 13:07 | 25.42246 | 55.24557 | 7991 ft | 270 kts | 132° |
| 2026-05-08 13:08 | 25.40984 | 55.26103 | 7994 ft | 270 kts | 132° |
| 2026-05-08 13:08 | 25.39726 | 55.27645 | 7996 ft | 270 kts | 132° |
| 2026-05-08 13:08 | 25.38468 | 55.29187 | 7997 ft | 271 kts | 132° |
| 2026-05-08 13:08 | 25.37217 | 55.30721 | 7997 ft | 264 kts | 132° |
| 2026-05-08 13:09 | 25.35983 | 55.32203 | 7835 ft | 260 kts | 137° |
| 2026-05-08 13:09 | 25.34506 | 55.33336 | 7476 ft | 259 kts | 152° |
| 2026-05-08 13:09 | 25.32909 | 55.34271 | 7092 ft | 260 kts | 152° |
| 2026-05-08 13:09 | 25.31320 | 55.35200 | 6763 ft | 259 kts | 152° |
| 2026-05-08 13:10 | 25.29724 | 55.36130 | 6419 ft | 260 kts | 152° |
| 2026-05-08 13:10 | 25.28117 | 55.37069 | 6067 ft | 260 kts | 151° |
| 2026-05-08 13:10 | 25.26550 | 55.37987 | 6002 ft | 258 kts | 152° |
| 2026-05-08 13:10 | 25.24945 | 55.38927 | 5991 ft | 258 kts | 152° |
| 2026-05-08 13:11 | 25.23382 | 55.39842 | 5873 ft | 256 kts | 152° |
| 2026-05-08 13:11 | 25.21806 | 55.40765 | 5483 ft | 257 kts | 152° |
| 2026-05-08 13:11 | 25.20218 | 55.41693 | 5087 ft | 259 kts | 153° |
| 2026-05-08 13:11 | 25.18625 | 55.42623 | 4775 ft | 258 kts | 153° |
| 2026-05-08 13:12 | 25.17041 | 55.43551 | 4464 ft | 257 kts | 153° |
| 2026-05-08 13:12 | 25.15455 | 55.44480 | 4120 ft | 259 kts | 154° |
| 2026-05-08 13:12 | 25.13871 | 55.45405 | 3828 ft | 257 kts | 154° |
| 2026-05-08 13:12 | 25.12306 | 55.46332 | 3519 ft | 254 kts | 150° |
| 2026-05-08 13:13 | 25.11366 | 55.47105 | 3292 ft | 256 kts | 137° |
| 2026-05-08 13:13 | 25.10257 | 55.48632 | 2987 ft | 256 kts | 121° |
| 2026-05-08 13:13 | 25.09332 | 55.50307 | 2617 ft | 257 kts | 123° |
| 2026-05-08 13:13 | 25.08395 | 55.51996 | 2308 ft | 257 kts | 123° |
| 2026-05-08 13:14 | 25.07464 | 55.53670 | 2058 ft | 253 kts | 121° |
| 2026-05-08 13:14 | 25.06921 | 55.55486 | 2011 ft | 252 kts | 90° |
| 2026-05-08 13:14 | 25.07271 | 55.57343 | 2017 ft | 250 kts | 57° |
| 2026-05-08 13:14 | 25.08392 | 55.58751 | 2011 ft | 243 kts | 29° |
| 2026-05-08 13:15 | 25.09924 | 55.59430 | 2014 ft | 236 kts | 3° |
| 2026-05-08 13:15 | 25.11518 | 55.59306 | 2009 ft | 228 kts | 338° |
| 2026-05-08 13:15 | 25.12874 | 55.58462 | 2008 ft | 223 kts | 314° |
| 2026-05-08 13:15 | 25.13798 | 55.57111 | 2010 ft | 222 kts | 300° |
| 2026-05-08 13:16 | 25.14597 | 55.55669 | 2023 ft | 214 kts | 300° |
| 2026-05-08 13:16 | 25.15357 | 55.54302 | 2007 ft | 205 kts | 300° |
| 2026-05-08 13:16 | 25.16089 | 55.52987 | 2011 ft | 193 kts | 300° |
| 2026-05-08 13:16 | 25.16747 | 55.51806 | 2000 ft | 171 kts | 300° |
| 2026-05-08 13:17 | 25.17343 | 55.50736 | 2020 ft | 155 kts | 299° |
| 2026-05-08 13:17 | 25.17902 | 55.49731 | 1982 ft | 153 kts | 300° |
| 2026-05-08 13:17 | 25.18451 | 55.48742 | 1851 ft | 149 kts | 300° |
| 2026-05-08 13:17 | 25.18981 | 55.47789 | 1698 ft | 146 kts | 300° |
| 2026-05-08 13:18 | 25.19509 | 55.46840 | 1532 ft | 144 kts | 300° |
| 2026-05-08 13:18 | 25.20035 | 55.45893 | 1349 ft | 145 kts | 300° |
| 2026-05-08 13:18 | 25.20560 | 55.44948 | 1166 ft | 144 kts | 300° |
| 2026-05-08 13:18 | 25.21071 | 55.44030 | 1000 ft | 145 kts | 300° |
| 2026-05-08 13:19 | 25.21591 | 55.43092 | 821 ft | 144 kts | 299° |
| 2026-05-08 13:19 | 25.22115 | 55.42149 | 659 ft | 145 kts | 299° |
| 2026-05-08 13:19 | 25.22649 | 55.41186 | 458 ft | 147 kts | 298° |
| 2026-05-08 13:19 | 25.23173 | 55.40223 | 247 ft | 143 kts | 300° |
| 2026-05-08 13:20 | 25.23691 | 55.39314 | 45 ft | 142 kts | 298° |
| 2026-05-08 13:20 | 25.24176 | 55.38404 | 29 ft | 119 kts | 301° |
| 2026-05-08 13:20 | 25.24530 | 55.37798 | 23 ft | 69 kts | 300° |
| 2026-05-08 13:20 | 25.24688 | 55.37508 | 23 ft | 21 kts | 301° |
| 2026-05-08 13:21 | 25.24769 | 55.37363 | 25 ft | 27 kts | 301° |
| 2026-05-08 13:21 | 25.24871 | 55.37178 | 24 ft | 28 kts | 302° |
| 2026-05-08 13:21 | 25.24887 | 55.37038 | 24 ft | 16 kts | 225° |
| 2026-05-08 13:21 | 25.24872 | 55.37025 | 24 ft | 0 kts | 216° |
| 2026-05-08 13:24 | 25.24870 | 55.37024 | 24 ft | 2 kts | 215° |
| 2026-05-08 13:24 | 25.24854 | 55.37012 | 23 ft | 0 kts | 214° |
| 2026-05-08 13:24 | 25.24839 | 55.37000 | 24 ft | 11 kts | 214° |
| 2026-05-08 13:24 | 25.24808 | 55.36896 | 22 ft | 16 kts | 285° |
| 2026-05-08 13:25 | 25.24861 | 55.36798 | 22 ft | 15 kts | 282° |
| 2026-05-08 13:25 | 25.24888 | 55.36685 | 21 ft | 16 kts | 291° |
| 2026-05-08 13:25 | 25.24954 | 55.36554 | 21 ft | 20 kts | 301° |
| 2026-05-08 13:25 | 25.25028 | 55.36422 | 24 ft | 20 kts | 303° |
| 2026-05-08 13:26 | 25.25102 | 55.36291 | 23 ft | 20 kts | 301° |
| 2026-05-08 13:26 | 25.25175 | 55.36161 | 23 ft | 20 kts | 302° |
| 2026-05-08 13:26 | 25.25247 | 55.36033 | 22 ft | 20 kts | 302° |
| 2026-05-08 13:26 | 25.25319 | 55.35907 | 22 ft | 19 kts | 303° |
| 2026-05-08 13:27 | 25.25389 | 55.35781 | 22 ft | 19 kts | 301° |
| 2026-05-08 13:27 | 25.25458 | 55.35657 | 23 ft | 19 kts | 301° |
| 2026-05-08 13:27 | 25.25527 | 55.35534 | 21 ft | 19 kts | 303° |
| 2026-05-08 13:27 | 25.25595 | 55.35416 | 22 ft | 18 kts | 302° |
| 2026-05-08 13:28 | 25.25662 | 55.35296 | 21 ft | 18 kts | 301° |
| 2026-05-08 13:28 | 25.25728 | 55.35179 | 21 ft | 18 kts | 301° |
| 2026-05-08 13:28 | 25.25793 | 55.35063 | 21 ft | 18 kts | 301° |
| 2026-05-08 13:28 | 25.25854 | 55.34947 | 21 ft | 17 kts | 300° |
| 2026-05-08 13:29 | 25.25916 | 55.34835 | 21 ft | 17 kts | 303° |
| 2026-05-08 13:29 | 25.25979 | 55.34728 | 21 ft | 17 kts | 302° |
| 2026-05-08 13:29 | 25.26040 | 55.34620 | 21 ft | 16 kts | 301° |
| 2026-05-08 13:29 | 25.26092 | 55.34525 | 21 ft | 11 kts | 301° |
| 2026-05-08 13:30 | 25.26124 | 55.34456 | 21 ft | 10 kts | 275° |
| 2026-05-08 13:30 | 25.26084 | 55.34409 | 21 ft | 9 kts | 212° |
| 2026-05-08 13:30 | 25.26047 | 55.34384 | 21 ft | 8 kts | 211° |